Time;durP1;ratioP1;P1;durP2;ratioP2;P2;SDS_P1;SDS_P2;PMS_P1;PMS_P2;Temp;Humidity;BMP_temperature;BMP_pressure;BME280_temperature;BME280_humidity;BME280_pressure;Samples;Min_cycle;Max_cycle;Signal;HPM_P1;HPM_P2
2024/01/11 00:00:53;;;;;;;;;;;-5.70;99.90;;;;;;5083200;28;20228;-74
2024/01/11 00:03:21;;;;;;;;;;;-5.80;99.90;;;;;;5093243;28;19947;-74
2024/01/11 00:05:48;;;;;;;;;;;-5.70;99.90;;;;;;5086497;28;19920;-74
2024/01/11 00:08:14;;;;;;;;;;;-5.70;99.90;;;;;;5085702;28;19948;-73
2024/01/11 00:10:41;;;;;;;;;;;-5.80;99.90;;;;;;5086459;28;19987;-74
2024/01/11 00:13:08;;;;;;;;;;;-5.80;99.90;;;;;;5083349;28;19988;-74
2024/01/11 00:15:34;;;;;;;;;;;-5.80;99.90;;;;;;5068964;28;19991;-72
2024/01/11 00:18:02;;;;;;;;;;;-5.80;99.90;;;;;;5099589;28;20142;-72
2024/01/11 00:20:30;;;;;;;;;;;-5.80;99.90;;;;;;5088258;28;19942;-71
2024/01/11 00:22:56;;;;;;;;;;;-5.80;99.90;;;;;;5086563;28;19924;-72
2024/01/11 00:25:23;;;;;;;;;;;-5.80;99.90;;;;;;5077429;28;19927;-72
2024/01/11 00:27:50;;;;;;;;;;;-5.80;99.90;;;;;;5084381;28;19927;-72
2024/01/11 00:30:16;;;;;;;;;;;-5.90;99.90;;;;;;5083163;28;19921;-72
2024/01/11 00:32:43;;;;;;;;;;;-5.90;99.90;;;;;;5088251;28;19983;-72
2024/01/11 00:35:09;;;;;;;;;;;-5.90;99.90;;;;;;5077907;28;19983;-71
2024/01/11 00:37:37;;;;;;;;;;;-5.90;99.90;;;;;;5077364;28;19920;-72
2024/01/11 00:40:05;;;;;;;;;;;-5.90;99.90;;;;;;5092159;28;19952;-71
2024/01/11 00:42:32;;;;;;;;;;;-5.90;99.90;;;;;;5085498;28;19920;-72
2024/01/11 00:44:59;;;;;;;;;;;-5.90;99.90;;;;;;5082847;28;19940;-73
2024/01/11 00:47:25;;;;;;;;;;;-5.90;99.90;;;;;;5070029;28;19943;-72
2024/01/11 00:49:52;;;;;;;;;;;-5.90;99.90;;;;;;5063531;28;20289;-72
2024/01/11 00:52:18;;;;;;;;;;;-5.90;99.90;;;;;;5064065;28;19959;-72
2024/01/11 00:54:46;;;;;;;;;;;-6.00;99.90;;;;;;5092492;28;19983;-72
2024/01/11 00:57:13;;;;;;;;;;;-6.00;99.90;;;;;;5084336;28;19920;-72
2024/01/11 00:59:40;;;;;;;;;;;-6.00;99.90;;;;;;5085162;28;20248;-72
2024/01/11 01:02:07;;;;;;;;;;;-6.00;99.90;;;;;;5097607;28;19952;-73
2024/01/11 01:04:34;;;;;;;;;;;-6.00;99.90;;;;;;5084913;28;19966;-72
2024/01/11 01:07:00;;;;;;;;;;;-6.00;99.90;;;;;;5085560;28;20226;-72
2024/01/11 01:09:27;;;;;;;;;;;-6.00;99.90;;;;;;5084449;28;19984;-72
2024/01/11 01:11:55;;;;;;;;;;;-6.00;99.90;;;;;;5085657;28;19928;-72
2024/01/11 01:14:21;;;;;;;;;;;-6.10;99.90;;;;;;5084515;28;20265;-72
2024/01/11 01:16:48;;;;;;;;;;;-6.10;99.90;;;;;;5101130;28;19926;-72
2024/01/11 01:19:15;;;;;;;;;;;-6.10;99.90;;;;;;5077079;28;20232;-72
2024/01/11 01:21:41;;;;;;;;;;;-6.20;99.90;;;;;;5085333;28;19955;-72
2024/01/11 01:24:08;;;;;;;;;;;-6.20;99.90;;;;;;5085031;28;19955;-72
2024/01/11 01:26:34;;;;;;;;;;;-6.20;99.90;;;;;;5084705;28;19962;-72
2024/01/11 01:29:03;;;;;;;;;;;-6.20;99.90;;;;;;5085065;28;19956;-72
2024/01/11 01:31:29;;;;;;;;;;;-6.20;99.90;;;;;;5085165;28;19920;-72
2024/01/11 01:33:56;;;;;;;;;;;-6.20;99.90;;;;;;5085383;28;19966;-72
2024/01/11 01:36:23;;;;;;;;;;;-6.20;99.90;;;;;;5103813;28;19926;-72
2024/01/11 01:38:49;;;;;;;;;;;-6.20;99.90;;;;;;5103609;28;19927;-72
2024/01/11 01:41:16;;;;;;;;;;;-6.20;99.90;;;;;;5103853;28;19983;-73
2024/01/11 01:43:42;;;;;;;;;;;-6.20;99.90;;;;;;5103484;28;19920;-72
2024/01/11 01:46:10;;;;;;;;;;;-6.20;99.90;;;;;;5095734;28;19920;-72
2024/01/11 01:48:37;;;;;;;;;;;-6.20;99.90;;;;;;5103702;28;19955;-72
2024/01/11 01:51:04;;;;;;;;;;;-6.20;99.90;;;;;;5103603;28;19979;-72
2024/01/11 01:53:31;;;;;;;;;;;-6.20;99.90;;;;;;5095416;28;19955;-73
2024/01/11 01:55:58;;;;;;;;;;;-6.20;99.90;;;;;;5085553;28;19974;-71
2024/01/11 01:58:24;;;;;;;;;;;-6.20;99.90;;;;;;5103664;28;19987;-72
2024/01/11 02:00:52;;;;;;;;;;;-6.30;99.90;;;;;;5091439;28;19920;-72
2024/01/11 02:03:20;;;;;;;;;;;-6.20;99.90;;;;;;5084672;28;19920;-72
2024/01/11 02:05:47;;;;;;;;;;;-6.30;99.90;;;;;;5091339;28;19995;-73
2024/01/11 02:08:16;;;;;;;;;;;-6.20;99.90;;;;;;5084510;28;19959;-71
2024/01/11 02:10:43;;;;;;;;;;;-6.20;99.90;;;;;;5091493;28;19987;-72
2024/01/11 02:13:10;;;;;;;;;;;-6.40;99.90;;;;;;5103089;28;19987;-72
2024/01/11 02:15:37;;;;;;;;;;;-6.40;99.90;;;;;;5102710;28;20182;-72
2024/01/11 02:18:04;;;;;;;;;;;-6.50;99.90;;;;;;5102899;28;19920;-72
2024/01/11 02:20:32;;;;;;;;;;;-6.50;99.90;;;;;;5103088;28;19971;-72
2024/01/11 02:23:02;;;;;;;;;;;-6.50;99.90;;;;;;5093434;28;19928;-72
2024/01/11 02:25:30;;;;;;;;;;;-6.50;99.90;;;;;;5081841;28;19924;-72
2024/01/11 02:27:56;;;;;;;;;;;-6.50;99.90;;;;;;5084302;28;19959;-72
2024/01/11 02:30:23;;;;;;;;;;;-6.50;99.90;;;;;;5084284;28;19920;-72
2024/01/11 02:32:51;;;;;;;;;;;-6.50;99.90;;;;;;5084298;28;20256;-72
2024/01/11 02:35:17;;;;;;;;;;;-6.50;99.90;;;;;;5083795;28;19952;-72
2024/01/11 02:37:44;;;;;;;;;;;-6.50;99.90;;;;;;5099810;28;19920;-72
2024/01/11 02:40:13;;;;;;;;;;;-6.50;99.90;;;;;;5102389;28;20214;-72
2024/01/11 02:42:41;;;;;;;;;;;-6.60;99.90;;;;;;5107522;28;19920;-74
2024/01/11 02:45:08;;;;;;;;;;;-6.60;99.90;;;;;;5089733;28;19992;-72
2024/01/11 02:47:34;;;;;;;;;;;-6.60;99.90;;;;;;5074722;28;19968;-75
2024/01/11 02:50:01;;;;;;;;;;;-6.60;99.90;;;;;;5107480;28;19939;-73
2024/01/11 02:52:28;;;;;;;;;;;-6.60;99.90;;;;;;5084487;28;19947;-74
2024/01/11 02:54:54;;;;;;;;;;;-6.60;99.90;;;;;;5083261;28;20210;-72
2024/01/11 02:57:21;;;;;;;;;;;-6.60;99.90;;;;;;5102518;28;19920;-71
2024/01/11 02:59:50;;;;;;;;;;;-6.50;99.90;;;;;;5102747;28;19951;-72
2024/01/11 03:02:17;;;;;;;;;;;-6.60;99.90;;;;;;5075683;28;20244;-71
2024/01/11 03:04:43;;;;;;;;;;;-6.60;99.90;;;;;;5087323;28;19987;-71
2024/01/11 03:07:10;;;;;;;;;;;-6.30;99.90;;;;;;5084289;28;19959;-71
2024/01/11 03:09:37;;;;;;;;;;;-6.60;99.90;;;;;;5089620;28;20257;-72
2024/01/11 03:12:06;;;;;;;;;;;-6.60;99.90;;;;;;5084964;28;19921;-71
2024/01/11 03:14:33;;;;;;;;;;;-6.70;99.90;;;;;;5083332;28;19928;-72
2024/01/11 03:17:01;;;;;;;;;;;-6.70;99.90;;;;;;5083915;28;19920;-71
2024/01/11 03:19:27;;;;;;;;;;;-6.70;99.90;;;;;;5083860;28;20178;-71
2024/01/11 03:21:54;;;;;;;;;;;-6.80;99.90;;;;;;5084029;28;19927;-73
2024/01/11 03:24:21;;;;;;;;;;;-6.80;99.90;;;;;;5082395;28;19987;-71
2024/01/11 03:26:48;;;;;;;;;;;-6.80;99.90;;;;;;5083726;28;20007;-72
2024/01/11 03:29:15;;;;;;;;;;;-6.90;99.90;;;;;;5075536;28;19948;-72
2024/01/11 03:31:43;;;;;;;;;;;-6.90;99.90;;;;;;5083849;28;19920;-72
2024/01/11 03:34:11;;;;;;;;;;;-6.90;99.90;;;;;;5096465;28;19951;-71
2024/01/11 03:36:37;;;;;;;;;;;-6.90;99.90;;;;;;5106065;28;19962;-71
2024/01/11 03:39:04;;;;;;;;;;;-6.90;99.90;;;;;;5105725;28;19970;-71
2024/01/11 03:41:30;;;;;;;;;;;-6.90;99.90;;;;;;5093298;28;19985;-73
2024/01/11 03:43:57;;;;;;;;;;;-6.90;99.90;;;;;;5086746;28;19983;-72
2024/01/11 03:46:24;;;;;;;;;;;-6.90;99.90;;;;;;5087008;28;19996;-72
2024/01/11 03:48:50;;;;;;;;;;;-7.00;99.90;;;;;;5086918;28;20000;-71
2024/01/11 03:51:18;;;;;;;;;;;-7.00;99.90;;;;;;5090533;28;19920;-71
2024/01/11 03:53:45;;;;;;;;;;;-7.00;99.90;;;;;;5097405;28;19920;-72
2024/01/11 03:56:12;;;;;;;;;;;-7.00;99.90;;;;;;5094357;28;19948;-72
2024/01/11 03:58:41;;;;;;;;;;;-7.00;99.90;;;;;;5086685;28;19962;-71
2024/01/11 04:01:10;;;;;;;;;;;-7.00;99.90;;;;;;5096908;28;20210;-71
2024/01/11 04:03:36;;;;;;;;;;;-7.00;99.90;;;;;;5105079;28;20217;-72
2024/01/11 04:06:03;;;;;;;;;;;-7.00;99.90;;;;;;5095662;28;20099;-73
2024/01/11 04:08:31;;;;;;;;;;;-7.00;99.90;;;;;;5086545;28;20166;-72
2024/01/11 04:10:58;;;;;;;;;;;-7.00;99.90;;;;;;5086841;28;19955;-71
2024/01/11 04:13:25;;;;;;;;;;;-7.00;99.90;;;;;;5086609;28;19952;-71
2024/01/11 04:15:51;;;;;;;;;;;-7.00;99.90;;;;;;5086237;28;19921;-72
2024/01/11 04:18:18;;;;;;;;;;;-7.00;99.90;;;;;;5105481;28;19979;-71
2024/01/11 04:20:45;;;;;;;;;;;-7.00;99.90;;;;;;5097185;28;20236;-71
2024/01/11 04:23:11;;;;;;;;;;;-7.00;99.90;;;;;;5104900;28;19963;-72
2024/01/11 04:25:39;;;;;;;;;;;-7.00;99.90;;;;;;5104819;28;19959;-72
2024/01/11 04:28:06;;;;;;;;;;;-7.10;99.90;;;;;;5104883;28;19955;-72
2024/01/11 04:30:33;;;;;;;;;;;-7.10;99.90;;;;;;5103695;28;19955;-72
2024/01/11 04:32:59;;;;;;;;;;;-7.00;99.90;;;;;;5093666;28;19931;-72
2024/01/11 04:35:26;;;;;;;;;;;-7.10;99.90;;;;;;5099666;28;19943;-72
2024/01/11 04:37:53;;;;;;;;;;;-7.10;99.90;;;;;;5086324;28;19920;-71
2024/01/11 04:40:19;;;;;;;;;;;-7.20;99.90;;;;;;5085248;28;20434;-71
2024/01/11 04:42:47;;;;;;;;;;;-7.20;99.90;;;;;;5085091;28;19956;-71
2024/01/11 04:45:14;;;;;;;;;;;-7.30;99.90;;;;;;5084250;28;19963;-72
2024/01/11 04:47:41;;;;;;;;;;;-7.30;99.90;;;;;;5091962;28;19920;-72
2024/01/11 04:50:08;;;;;;;;;;;-7.30;99.90;;;;;;5096433;28;19927;-72
2024/01/11 04:52:35;;;;;;;;;;;-7.30;99.90;;;;;;5098801;28;19963;-71
2024/01/11 04:55:01;;;;;;;;;;;-7.30;99.90;;;;;;5084445;28;19955;-71
2024/01/11 04:57:28;;;;;;;;;;;-7.30;99.90;;;;;;5085569;28;20237;-72
2024/01/11 04:59:56;;;;;;;;;;;-7.30;99.90;;;;;;5093766;28;19979;-71
2024/01/11 05:02:23;;;;;;;;;;;-7.30;99.90;;;;;;5104369;28;19962;-73
2024/01/11 05:04:49;;;;;;;;;;;-7.30;99.90;;;;;;5084471;28;19979;-72
2024/01/11 05:07:16;;;;;;;;;;;-7.30;99.90;;;;;;5085585;28;19927;-73
2024/01/11 05:09:42;;;;;;;;;;;-7.30;99.90;;;;;;5084853;28;19991;-72
2024/01/11 05:12:09;;;;;;;;;;;-7.30;99.90;;;;;;5085468;28;20121;-73
2024/01/11 05:14:36;;;;;;;;;;;-7.30;99.90;;;;;;5091318;28;19983;-72
2024/01/11 05:17:04;;;;;;;;;;;-7.30;99.90;;;;;;5094334;28;19988;-72
2024/01/11 05:19:31;;;;;;;;;;;-7.30;99.90;;;;;;5084751;28;19920;-73
2024/01/11 05:21:57;;;;;;;;;;;-7.30;99.90;;;;;;5084475;28;20173;-73
2024/01/11 05:24:24;;;;;;;;;;;-7.30;99.90;;;;;;5084006;28;19920;-73
2024/01/11 05:26:51;;;;;;;;;;;-7.30;99.90;;;;;;5092781;28;19982;-72
2024/01/11 05:29:17;;;;;;;;;;;-7.30;99.90;;;;;;5099830;28;19983;-72
2024/01/11 05:31:44;;;;;;;;;;;-7.30;99.90;;;;;;5084808;28;20152;-73
2024/01/11 05:34:15;;;;;;;;;;;-7.30;99.90;;;;;;5086003;28;19987;-72
2024/01/11 05:36:42;;;;;;;;;;;-7.30;99.90;;;;;;5078169;28;20172;-72
2024/01/11 05:39:17;;;;;;;;;;;-7.30;99.90;;;;;;5088045;28;19970;-72
2024/01/11 05:41:44;;;;;;;;;;;-7.30;99.90;;;;;;5086417;28;19948;-73
2024/01/11 05:44:14;;;;;;;;;;;-7.40;99.90;;;;;;5103600;28;19951;-72
2024/01/11 05:46:49;;;;;;;;;;;-7.30;99.90;;;;;;5089640;28;20225;-72
2024/01/11 05:49:17;;;;;;;;;;;-7.30;99.90;;;;;;5078746;28;19921;-74
2024/01/11 05:51:43;;;;;;;;;;;-7.30;99.90;;;;;;5086284;28;19920;-72
2024/01/11 05:54:10;;;;;;;;;;;-7.30;99.90;;;;;;5102953;28;19920;-72
2024/01/11 05:56:37;;;;;;;;;;;-7.30;99.90;;;;;;5103539;28;20146;-71
2024/01/11 05:59:04;;;;;;;;;;;-7.40;99.90;;;;;;5104608;28;19920;-71
2024/01/11 06:01:31;;;;;;;;;;;-7.40;99.90;;;;;;5102421;28;19961;-70
2024/01/11 06:03:58;;;;;;;;;;;-7.40;99.90;;;;;;5084575;28;19920;-71
2024/01/11 06:06:26;;;;;;;;;;;-7.50;99.90;;;;;;5080071;28;19952;-70
2024/01/11 06:08:52;;;;;;;;;;;-7.60;99.90;;;;;;5073521;28;19951;-70
2024/01/11 06:11:19;;;;;;;;;;;-7.60;99.90;;;;;;5084692;28;20104;-71
2024/01/11 06:13:47;;;;;;;;;;;-7.60;99.90;;;;;;5087207;28;19956;-70
2024/01/11 06:16:13;;;;;;;;;;;-7.70;99.90;;;;;;5105151;28;19961;-70
2024/01/11 06:18:40;;;;;;;;;;;-7.70;99.90;;;;;;5088882;28;20003;-70
2024/01/11 06:21:12;;;;;;;;;;;-7.80;99.90;;;;;;5084650;28;19987;-70
2024/01/11 06:23:39;;;;;;;;;;;-7.70;99.90;;;;;;5084748;28;19920;-71
2024/01/11 06:26:06;;;;;;;;;;;-7.70;99.90;;;;;;5085619;28;19991;-71
2024/01/11 06:28:33;;;;;;;;;;;-7.70;99.90;;;;;;5084447;28;19952;-73
2024/01/11 06:30:59;;;;;;;;;;;-7.70;99.90;;;;;;5087395;28;19991;-71
2024/01/11 06:33:26;;;;;;;;;;;-7.70;99.90;;;;;;5085627;28;19956;-71
2024/01/11 06:35:53;;;;;;;;;;;-7.80;99.90;;;;;;5073568;28;19982;-72
2024/01/11 06:38:19;;;;;;;;;;;-7.80;99.90;;;;;;5056703;28;19928;-71
2024/01/11 06:40:47;;;;;;;;;;;-7.80;99.90;;;;;;5059574;28;19995;-71
2024/01/11 06:43:14;;;;;;;;;;;-7.80;99.90;;;;;;5062969;28;19937;-71
2024/01/11 06:45:41;;;;;;;;;;;-7.80;99.90;;;;;;5059781;28;20011;-71
2024/01/11 06:48:07;;;;;;;;;;;-7.80;99.90;;;;;;5058540;28;20189;-72
2024/01/11 06:50:34;;;;;;;;;;;-7.70;99.90;;;;;;5058799;28;19936;-71
2024/01/11 06:53:01;;;;;;;;;;;-7.80;99.90;;;;;;5059737;28;19987;-71
2024/01/11 06:55:27;;;;;;;;;;;-7.70;99.90;;;;;;5056733;28;19952;-71
2024/01/11 06:57:55;;;;;;;;;;;-7.70;99.90;;;;;;5060502;28;20219;-71
2024/01/11 07:00:22;;;;;;;;;;;-7.60;99.90;;;;;;5057792;28;19951;-71
2024/01/11 07:02:49;;;;;;;;;;;-7.70;99.90;;;;;;5056286;28;19920;-71
2024/01/11 07:05:16;;;;;;;;;;;-7.70;99.90;;;;;;5057945;28;19943;-71
2024/01/11 07:07:43;;;;;;;;;;;-7.70;99.90;;;;;;5061158;28;20264;-70
2024/01/11 07:10:09;;;;;;;;;;;-7.70;99.90;;;;;;5065080;28;19991;-71
2024/01/11 07:12:37;;;;;;;;;;;-7.70;99.90;;;;;;5064190;28;19983;-72
2024/01/11 07:15:07;;;;;;;;;;;-7.70;99.90;;;;;;5061358;28;19920;-72
2024/01/11 07:17:34;;;;;;;;;;;-7.80;99.90;;;;;;5062759;28;19943;-71
2024/01/11 07:20:03;;;;;;;;;;;-7.80;99.90;;;;;;5077359;28;19948;-71
2024/01/11 07:22:29;;;;;;;;;;;-7.70;99.90;;;;;;5083502;28;19988;-71
2024/01/11 07:24:56;;;;;;;;;;;-7.70;99.90;;;;;;5072619;28;19920;-70
2024/01/11 07:27:23;;;;;;;;;;;-7.70;99.90;;;;;;5075359;28;20246;-71
2024/01/11 07:29:58;;;;;;;;;;;-7.70;99.90;;;;;;5083455;28;20008;-71
2024/01/11 07:32:26;;;;;;;;;;;-7.70;99.90;;;;;;5086144;28;20406;-73
2024/01/11 07:34:53;;;;;;;;;;;-7.70;99.90;;;;;;5070651;28;19928;-71
2024/01/11 07:37:20;;;;;;;;;;;-7.60;99.90;;;;;;5074342;28;19987;-71
2024/01/11 07:39:46;;;;;;;;;;;-7.60;99.90;;;;;;5075740;28;19925;-71
2024/01/11 07:42:16;;;;;;;;;;;-7.60;99.90;;;;;;5086854;28;19979;-71
2024/01/11 07:44:42;;;;;;;;;;;-7.60;99.90;;;;;;5087388;28;19987;-71
2024/01/11 07:47:09;;;;;;;;;;;-7.60;99.90;;;;;;5087053;28;20015;-71
2024/01/11 07:49:44;;;;;;;;;;;-7.60;99.90;;;;;;5087538;28;19926;-71
2024/01/11 07:52:10;;;;;;;;;;;-7.60;99.90;;;;;;5088016;28;19920;-71
2024/01/11 07:54:37;;;;;;;;;;;-7.60;99.90;;;;;;5092873;28;19920;-72
2024/01/11 07:57:04;;;;;;;;;;;-7.70;99.90;;;;;;5103527;28;19949;-72
2024/01/11 07:59:35;;;;;;;;;;;-7.70;99.90;;;;;;5086300;28;19971;-71
2024/01/11 08:02:20;;;;;;;;;;;-7.70;99.90;;;;;;5092081;28;19928;-72
2024/01/11 08:04:47;;;;;;;;;;;-7.70;99.90;;;;;;5087567;28;19979;-72
2024/01/11 08:07:14;;;;;;;;;;;-7.70;99.90;;;;;;5087359;28;19956;-71
2024/01/11 08:09:45;;;;;;;;;;;-7.70;99.90;;;;;;5086863;28;19987;-72
2024/01/11 08:12:11;;;;;;;;;;;-7.60;99.90;;;;;;5085928;28;20244;-72
2024/01/11 08:14:37;;;;;;;;;;;-7.60;99.90;;;;;;5085750;28;19927;-72
2024/01/11 08:17:04;;;;;;;;;;;-7.50;99.90;;;;;;5096844;28;19942;-72
2024/01/11 08:19:31;;;;;;;;;;;-7.50;99.90;;;;;;5105018;28;19920;-73
2024/01/11 08:21:59;;;;;;;;;;;-7.50;99.90;;;;;;5103735;28;19920;-72
2024/01/11 08:24:37;;;;;;;;;;;-7.40;99.90;;;;;;5087116;28;19983;-72
2024/01/11 08:27:04;;;;;;;;;;;-7.40;99.90;;;;;;5108463;28;19920;-73
2024/01/11 08:29:31;;;;;;;;;;;-7.40;99.90;;;;;;5101563;28;19955;-71
2024/01/11 08:32:09;;;;;;;;;;;-7.30;99.90;;;;;;5101319;28;19959;-72
2024/01/11 08:34:36;;;;;;;;;;;-7.30;99.90;;;;;;5087023;28;19920;-71
2024/01/11 08:37:04;;;;;;;;;;;-7.20;99.90;;;;;;5084419;28;19984;-71
2024/01/11 08:39:31;;;;;;;;;;;-7.20;99.90;;;;;;5086350;28;19962;-71
2024/01/11 08:41:57;;;;;;;;;;;-7.10;99.90;;;;;;5087026;28;20206;-71
2024/01/11 08:44:24;;;;;;;;;;;-7.00;99.90;;;;;;5085604;28;19940;-71
2024/01/11 08:46:51;;;;;;;;;;;-7.00;99.90;;;;;;5086882;28;19956;-71
2024/01/11 08:49:17;;;;;;;;;;;-6.90;99.90;;;;;;5084449;28;19952;-71
2024/01/11 08:51:44;;;;;;;;;;;-6.80;99.90;;;;;;5106133;28;19927;-71
2024/01/11 08:54:12;;;;;;;;;;;-6.80;99.90;;;;;;5093519;28;19987;-71
2024/01/11 08:56:39;;;;;;;;;;;-6.70;99.90;;;;;;5085829;28;19991;-71
2024/01/11 08:59:07;;;;;;;;;;;-6.70;99.90;;;;;;5084477;28;19928;-72
2024/01/11 09:01:35;;;;;;;;;;;-6.60;99.90;;;;;;5092653;28;19920;-72
2024/01/11 09:04:02;;;;;;;;;;;-6.60;99.90;;;;;;5090119;28;19920;-71
2024/01/11 09:06:28;;;;;;;;;;;-6.50;99.90;;;;;;5086751;28;19988;-71
2024/01/11 09:08:55;;;;;;;;;;;-6.40;99.90;;;;;;5086033;28;19920;-71
2024/01/11 09:11:23;;;;;;;;;;;-6.40;99.90;;;;;;5101133;28;19920;-71
2024/01/11 09:13:50;;;;;;;;;;;-6.30;99.90;;;;;;5082237;28;19983;-72
2024/01/11 09:16:17;;;;;;;;;;;-6.20;99.90;;;;;;5102365;28;19926;-71
2024/01/11 09:18:44;;;;;;;;;;;-6.10;99.90;;;;;;5087167;28;19927;-71
2024/01/11 09:21:11;;;;;;;;;;;-6.00;99.90;;;;;;5096779;28;19924;-71
2024/01/11 09:23:38;;;;;;;;;;;-6.00;99.90;;;;;;5106047;28;19962;-71
2024/01/11 09:26:05;;;;;;;;;;;-5.80;99.90;;;;;;5102655;28;19965;-71
2024/01/11 09:28:33;;;;;;;;;;;-5.70;99.90;;;;;;5098604;28;19927;-71
2024/01/11 09:31:01;;;;;;;;;;;-5.50;99.90;;;;;;5102744;28;19987;-71
2024/01/11 09:33:28;;;;;;;;;;;-5.40;99.90;;;;;;5094998;22;19939;-70
2024/01/11 09:35:55;;;;;;;;;;;-5.40;99.90;;;;;;5110017;28;20236;-70
2024/01/11 09:38:22;;;;;;;;;;;-5.30;99.90;;;;;;5113169;28;19948;-70
2024/01/11 09:40:54;;;;;;;;;;;-5.20;99.90;;;;;;5115984;28;19920;-70
2024/01/11 09:43:21;;;;;;;;;;;-5.20;99.90;;;;;;5104662;28;19951;-70
2024/01/11 09:45:51;;;;;;;;;;;-5.10;99.90;;;;;;5103845;28;19986;-70
2024/01/11 09:48:17;;;;;;;;;;;-5.00;99.90;;;;;;5087243;28;20121;-70
2024/01/11 09:50:44;;;;;;;;;;;-4.90;99.90;;;;;;5099135;28;19983;-70
2024/01/11 09:53:11;;;;;;;;;;;-4.80;99.90;;;;;;5095089;28;19920;-70
2024/01/11 09:55:38;;;;;;;;;;;-4.70;99.90;;;;;;5104079;28;19952;-70
2024/01/11 09:58:05;;;;;;;;;;;-4.70;99.90;;;;;;5103999;28;19952;-70
2024/01/11 10:00:32;;;;;;;;;;;-4.60;99.90;;;;;;5104265;28;19954;-70
2024/01/11 10:03:00;;;;;;;;;;;-4.60;99.90;;;;;;5103669;28;19987;-70
2024/01/11 10:05:28;;;;;;;;;;;-4.60;99.90;;;;;;5099503;28;20176;-70
2024/01/11 10:07:54;;;;;;;;;;;-4.50;99.90;;;;;;5103960;28;19972;-70
2024/01/11 10:10:21;;;;;;;;;;;-4.40;99.90;;;;;;5102069;28;19920;-70
2024/01/11 10:12:49;;;;;;;;;;;-4.40;99.90;;;;;;5100340;28;19965;-70
2024/01/11 10:15:15;;;;;;;;;;;-4.30;99.90;;;;;;5071395;28;19924;-70
2024/01/11 10:17:43;;;;;;;;;;;-4.20;99.90;;;;;;5103609;28;19920;-70
2024/01/11 10:20:13;;;;;;;;;;;-4.10;99.90;;;;;;5104057;28;19927;-70
2024/01/11 10:22:40;;;;;;;;;;;-3.90;99.90;;;;;;5097856;28;19987;-70
2024/01/11 10:25:11;;;;;;;;;;;-3.80;99.90;;;;;;5094934;28;20145;-70
2024/01/11 10:27:38;;;;;;;;;;;-3.80;99.90;;;;;;5103982;28;19961;-70
2024/01/11 10:30:07;;;;;;;;;;;-3.70;99.90;;;;;;5099003;28;20184;-71
2024/01/11 10:32:34;;;;;;;;;;;-3.60;99.90;;;;;;5060557;28;19928;-69
2024/01/11 10:35:04;;;;;;;;;;;-3.50;99.90;;;;;;5074760;28;20091;-69
2024/01/11 10:37:33;;;;;;;;;;;-3.40;99.90;;;;;;5079188;28;19960;-69
2024/01/11 10:40:03;;;;;;;;;;;-3.30;99.90;;;;;;5077760;28;20260;-69
2024/01/11 10:42:32;;;;;;;;;;;-3.20;99.90;;;;;;5092612;28;19920;-69
2024/01/11 10:45:00;;;;;;;;;;;-3.00;99.90;;;;;;5069339;28;19991;-69
2024/01/11 10:47:31;;;;;;;;;;;-2.90;99.90;;;;;;5092087;28;19931;-69
2024/01/11 10:49:59;;;;;;;;;;;-2.70;99.90;;;;;;5093474;28;19927;-69
2024/01/11 10:52:29;;;;;;;;;;;-2.60;99.90;;;;;;5067642;28;19987;-69
2024/01/11 10:54:59;;;;;;;;;;;-2.40;99.90;;;;;;5067054;28;19924;-69
2024/01/11 10:57:26;;;;;;;;;;;-2.20;99.90;;;;;;5068027;28;19967;-69
2024/01/11 10:59:53;;;;;;;;;;;-2.00;99.90;;;;;;5063231;28;20091;-69
2024/01/11 11:02:21;;;;;;;;;;;-1.90;99.90;;;;;;5065568;28;19967;-69
2024/01/11 11:04:49;;;;;;;;;;;-1.70;99.90;;;;;;5066610;28;19937;-69
2024/01/11 11:07:16;;;;;;;;;;;-1.60;99.90;;;;;;5065214;28;19921;-69
2024/01/11 11:09:45;;;;;;;;;;;-1.40;99.90;;;;;;5063829;28;19920;-69
2024/01/11 11:12:14;;;;;;;;;;;-1.30;99.90;;;;;;5061607;28;20109;-69
2024/01/11 11:14:41;;;;;;;;;;;-1.10;99.90;;;;;;5063032;28;19960;-69
2024/01/11 11:17:08;;;;;;;;;;;-1.00;99.90;;;;;;5061788;28;20237;-69
2024/01/11 11:19:34;;;;;;;;;;;-0.80;99.90;;;;;;5061105;28;19932;-69
2024/01/11 11:22:04;;;;;;;;;;;-0.70;99.90;;;;;;5064752;28;20000;-69
2024/01/11 11:24:31;;;;;;;;;;;-0.60;99.90;;;;;;5063384;28;19921;-69
2024/01/11 11:26:59;;;;;;;;;;;-0.40;99.90;;;;;;5064809;28;19967;-69
2024/01/11 11:29:27;;;;;;;;;;;-0.20;99.90;;;;;;5064336;28;19921;-69
2024/01/11 11:31:54;;;;;;;;;;;0.00;99.90;;;;;;5060955;28;20267;-69
2024/01/11 11:34:21;;;;;;;;;;;0.20;99.90;;;;;;5064833;28;19928;-70
2024/01/11 11:36:49;;;;;;;;;;;0.30;99.90;;;;;;5064768;28;19952;-69
2024/01/11 11:39:19;;;;;;;;;;;0.40;99.90;;;;;;5063177;28;20025;-69
2024/01/11 11:41:46;;;;;;;;;;;0.60;99.90;;;;;;5063617;28;19921;-69
2024/01/11 11:44:13;;;;;;;;;;;0.70;99.90;;;;;;5094643;28;19951;-69
2024/01/11 11:46:41;;;;;;;;;;;0.80;99.90;;;;;;5076399;28;19929;-69
2024/01/11 11:49:09;;;;;;;;;;;0.80;99.90;;;;;;5098202;28;20191;-69
2024/01/11 11:51:40;;;;;;;;;;;0.80;99.90;;;;;;5093004;28;19984;-69
2024/01/11 11:54:09;;;;;;;;;;;1.00;99.90;;;;;;5093396;28;19920;-69
2024/01/11 11:56:36;;;;;;;;;;;1.20;99.90;;;;;;5105460;28;19920;-68
2024/01/11 11:59:03;;;;;;;;;;;1.40;99.90;;;;;;5098597;28;19920;-69
2024/01/11 12:01:32;;;;;;;;;;;1.50;99.90;;;;;;5096923;28;20094;-69
2024/01/11 12:04:01;;;;;;;;;;;1.70;99.90;;;;;;5077176;28;20284;-69
2024/01/11 12:06:29;;;;;;;;;;;1.90;99.90;;;;;;5099372;28;20117;-70
2024/01/11 12:08:55;;;;;;;;;;;2.00;99.90;;;;;;5072916;28;19920;-72
2024/01/11 12:11:23;;;;;;;;;;;2.00;99.90;;;;;;5086596;28;19987;-70
2024/01/11 12:13:52;;;;;;;;;;;2.00;99.90;;;;;;5087740;28;20228;-70
2024/01/11 12:16:19;;;;;;;;;;;2.00;99.90;;;;;;5066199;28;20217;-69
2024/01/11 12:18:45;;;;;;;;;;;2.00;99.90;;;;;;5062349;28;19929;-70
2024/01/11 12:21:13;;;;;;;;;;;2.00;99.90;;;;;;5064124;28;20166;-69
2024/01/11 12:23:40;;;;;;;;;;;1.90;99.90;;;;;;5064014;28;19935;-69
2024/01/11 12:26:11;;;;;;;;;;;1.90;99.90;;;;;;5084036;28;19920;-69
2024/01/11 12:28:38;;;;;;;;;;;2.00;99.90;;;;;;5069936;28;19920;-69
2024/01/11 12:31:05;;;;;;;;;;;2.10;99.90;;;;;;5094350;28;19951;-70
2024/01/11 12:33:31;;;;;;;;;;;2.20;99.90;;;;;;5104852;28;20042;-69
2024/01/11 12:35:58;;;;;;;;;;;2.40;99.90;;;;;;5095446;28;20264;-69
2024/01/11 12:38:26;;;;;;;;;;;2.50;99.90;;;;;;5097750;28;20253;-70
2024/01/11 12:40:53;;;;;;;;;;;2.50;99.90;;;;;;5101093;28;19952;-69
2024/01/11 12:43:19;;;;;;;;;;;2.60;99.90;;;;;;5078543;28;20086;-69
2024/01/11 12:45:46;;;;;;;;;;;2.50;99.90;;;;;;5083941;28;20269;-70
2024/01/11 12:48:16;;;;;;;;;;;2.60;99.90;;;;;;5091411;28;20289;-70
2024/01/11 12:50:43;;;;;;;;;;;2.60;99.90;;;;;;5084418;28;19920;-70
2024/01/11 12:53:12;;;;;;;;;;;2.60;99.90;;;;;;5094091;28;19959;-70
2024/01/11 12:55:40;;;;;;;;;;;2.70;99.90;;;;;;5100967;28;19920;-70
2024/01/11 12:58:09;;;;;;;;;;;2.80;99.90;;;;;;5080362;28;19974;-69
2024/01/11 13:00:36;;;;;;;;;;;2.70;99.90;;;;;;5086091;28;19931;-69
2024/01/11 13:03:02;;;;;;;;;;;2.70;99.90;;;;;;5075561;28;19921;-69
2024/01/11 13:05:32;;;;;;;;;;;2.70;99.90;;;;;;5061029;28;19932;-69
2024/01/11 13:07:58;;;;;;;;;;;2.70;99.90;;;;;;5064966;28;19928;-69
2024/01/11 13:10:27;;;;;;;;;;;2.60;99.90;;;;;;5064382;28;19987;-69
2024/01/11 13:12:56;;;;;;;;;;;2.70;99.90;;;;;;5063554;28;19921;-69
2024/01/11 13:15:24;;;;;;;;;;;2.70;99.90;;;;;;5062530;28;19943;-69
2024/01/11 13:17:50;;;;;;;;;;;2.70;99.90;;;;;;5063333;28;19929;-69
2024/01/11 13:20:17;;;;;;;;;;;2.70;99.90;;;;;;5064391;28;19921;-69
2024/01/11 13:22:44;;;;;;;;;;;2.70;99.90;;;;;;5060592;28;19929;-69
2024/01/11 13:25:11;;;;;;;;;;;2.70;99.90;;;;;;5063364;28;19927;-69
2024/01/11 13:27:37;;;;;;;;;;;2.80;99.90;;;;;;5062404;28;20168;-69
2024/01/11 13:30:07;;;;;;;;;;;2.70;99.90;;;;;;5082569;28;19987;-70
2024/01/11 13:32:34;;;;;;;;;;;2.60;99.90;;;;;;5085225;28;19988;-70
2024/01/11 13:35:00;;;;;;;;;;;2.50;99.90;;;;;;5093317;28;19920;-69
2024/01/11 13:37:27;;;;;;;;;;;2.50;99.90;;;;;;5080964;28;20004;-69
2024/01/11 13:39:54;;;;;;;;;;;2.50;99.90;;;;;;5086995;28;19966;-69
2024/01/11 13:42:20;;;;;;;;;;;2.40;99.90;;;;;;5089709;28;19958;-69
2024/01/11 13:44:47;;;;;;;;;;;2.30;99.90;;;;;;5088838;28;20164;-69
2024/01/11 13:47:15;;;;;;;;;;;2.30;99.90;;;;;;5103771;28;19919;-69
2024/01/11 13:49:42;;;;;;;;;;;2.20;99.90;;;;;;5085188;28;19956;-69
2024/01/11 13:52:08;;;;;;;;;;;2.00;99.90;;;;;;5088754;28;19963;-69
2024/01/11 13:54:35;;;;;;;;;;;1.80;99.90;;;;;;5085539;28;19928;-69
2024/01/11 13:57:02;;;;;;;;;;;1.70;99.90;;;;;;5077157;28;19963;-69
2024/01/11 13:59:29;;;;;;;;;;;1.60;99.90;;;;;;5081764;28;19925;-69
2024/01/11 14:01:55;;;;;;;;;;;1.40;99.90;;;;;;5090773;28;19920;-70
2024/01/11 14:04:24;;;;;;;;;;;1.30;99.90;;;;;;5074662;28;19920;-69
2024/01/11 14:06:51;;;;;;;;;;;1.10;99.90;;;;;;5069303;28;20233;-70
2024/01/11 14:09:17;;;;;;;;;;;1.10;99.90;;;;;;5099370;28;20131;-70
2024/01/11 14:11:44;;;;;;;;;;;1.00;99.90;;;;;;5081804;28;19920;-70
2024/01/11 14:14:11;;;;;;;;;;;0.90;99.90;;;;;;5092267;28;19933;-70
2024/01/11 14:16:37;;;;;;;;;;;0.80;99.90;;;;;;5097066;28;19991;-70
2024/01/11 14:19:04;;;;;;;;;;;0.80;99.90;;;;;;5076415;28;19996;-70